CXT,Max TemperatureF,Mean TemperatureF,Min TemperatureF,Max Dew PointF,MeanDew PointF,Min DewpointF,Max Humidity, Mean Humidity, Min Humidity, Max Sea Level PressureIn, Mean Sea Level PressureIn, Min Sea Level PressureIn, Max VisibilityMiles, Mean VisibilityMiles, Min VisibilityMiles, Max Wind SpeedMPH, Mean Wind SpeedMPH, Max Gust SpeedMPH,PrecipitationIn, CloudCover, Events, WindDirDegrees
2012-11-1,84,80,76,75,73,71,94,81,63,29.95,29.89,29.81,6,6,6,15,12,,0.00,6,,121
2012-11-2,82,79,76,75,75,73,94,86,75,29.92,29.86,29.79,6,6,6,14,12,,0.00,7,,123
2012-11-3,83,80,76,75,74,73,94,85,74,29.92,29.86,29.80,6,6,6,15,12,,0.00,7,,127
2012-11-4,83,80,76,75,73,72,94,83,66,29.92,29.88,29.81,6,6,6,17,12,,0.02,6,,127
2012-11-5,82,79,76,73,71,70,89,77,63,29.95,29.90,29.82,6,6,6,17,15,,0.00,6,,125
2012-11-6,83,79,75,74,72,70,91,80,67,29.95,29.90,29.84,6,6,6,17,14,,0.00,8,,128
2012-11-7,83,79,75,72,68,64,89,70,44,29.95,29.88,29.80,6,6,6,18,13,29,0.01,6,,132
2012-11-8,84,80,75,82,75,64,100,90,57,29.89,29.85,29.77,6,6,6,17,13,,0.01,5,,129
2012-11-9,82,78,75,79,73,71,100,84,62,29.92,29.86,29.78,6,6,6,15,12,,0.00,6,,132
2012-11-10,83,79,75,74,73,72,94,84,71,29.95,29.89,29.82,6,6,6,15,9,,0.00,7,,139
2012-11-11,84,80,75,72,70,68,89,76,55,29.95,29.89,29.81,6,6,6,17,11,,0.00,5,,142
2012-11-12,84,80,75,70,69,66,83,70,51,29.95,29.89,29.81,6,6,6,17,14,,0.00,5,,131
2012-11-13,83,79,75,72,70,68,83,75,54,29.95,29.90,29.82,6,6,6,17,13,,0.00,6,,133
2012-11-14,83,79,75,75,73,72,94,82,67,29.95,29.89,29.82,6,6,6,15,11,,0.00,7,,135
2012-11-15,83,80,76,75,73,72,94,81,64,29.98,29.91,29.83,6,6,6,16,11,,0.00,7,,136
2012-11-16,83,79,75,72,71,70,83,78,62,29.95,29.91,29.83,6,6,6,14,11,,0.00,6,,130
2012-11-17,83,79,75,72,71,70,83,78,58,29.95,29.89,29.78,6,6,6,15,11,,0.00,6,,129
2012-11-18,84,80,75,72,70,68,83,73,51,29.95,29.89,29.82,6,6,6,17,11,,0.00,5,,134
2012-11-19,84,80,75,70,69,64,83,70,51,29.95,29.91,29.85,6,6,6,15,11,,0.01,5,,134
2012-11-20,84,80,75,70,69,66,83,70,46,29.98,29.92,29.86,6,6,6,16,12,,0.00,4,,128
2012-11-21,83,79,75,70,68,66,83,69,53,29.95,29.90,29.83,6,6,6,17,13,,0.00,5,,130
2012-11-22,83,79,75,70,65,52,83,64,25,29.95,29.89,29.81,6,6,6,15,10,,0.00,5,,137
2012-11-23,83,78,74,72,69,62,83,71,44,29.95,29.89,29.81,6,6,6,13,10,,0.00,5,,142
2012-11-24,83,79,75,72,71,64,83,77,58,29.95,29.89,29.82,6,6,6,15,11,,0.00,7,,144
2012-11-25,84,78,73,75,73,70,100,82,67,29.95,29.89,29.81,6,6,0,17,13,25,0.12,7,,133
2012-11-26,82,78,73,77,75,74,100,90,75,29.95,29.88,29.80,6,6,5,13,11,,0.01,7,,114
2012-11-27,79,76,73,77,75,73,100,95,91,29.89,29.85,29.76,6,4,0,13,7,,1.73,7,,74
2012-11-28,81,78,74,77,75,73,100,95,72,29.89,29.85,29.78,5,3,0,13,4,,0.00,6,,95
2012-11-29,82,78,74,77,75,73,100,90,73,29.92,29.84,29.77,,,,13,8,,0.00,,,104
2012-11-30,81,79,77,77,76,73,100,91,75,29.89,29.84,29.79,,,,16,12,,0.35,,,122